Time;durP1;ratioP1;P1;durP2;ratioP2;P2;SDS_P1;SDS_P2;PMS_P1;PMS_P2;Temp;Humidity;BMP_temperature;BMP_pressure;BME280_temperature;BME280_humidity;BME280_pressure;Samples;Min_cycle;Max_cycle;Signal;HPM_P1;HPM_P2
2022/11/16 00:00:14;;;;;;;;;;;;;;;16.31;66.62;99474.84;1265805;23;626;-72
2022/11/16 00:01:04;;;;;;;;;;;;;;;16.31;66.29;99474.84;1266337;23;646;-73
2022/11/16 00:01:55;;;;;;;;;;;;;;;16.32;66.63;99471.16;1267686;23;741;-71
2022/11/16 00:02:47;;;;;;;;;;;;;;;16.33;66.36;99470.16;1264833;23;1085;-72
2022/11/16 00:03:37;;;;;;;;;;;;;;;16.31;66.59;99475.69;1267066;23;649;-72
2022/11/16 00:04:28;;;;;;;;;;;;;;;16.30;66.48;99468.63;1265820;23;634;-73
2022/11/16 00:05:18;;;;;;;;;;;;;;;16.30;66.45;99473.22;1267939;23;630;-72
2022/11/16 00:06:09;;;;;;;;;;;;;;;16.29;66.56;99477.75;1265999;23;696;-72
2022/11/16 00:07:01;;;;;;;;;;;;;;;16.29;66.50;99476.91;1265765;23;606;-72
2022/11/16 00:07:51;;;;;;;;;;;;;;;16.28;66.58;99470.69;1264712;23;571;-71
2022/11/16 00:08:42;;;;;;;;;;;;;;;16.29;67.19;99468.84;1265847;23;626;-71
2022/11/16 00:09:32;;;;;;;;;;;;;;;16.27;66.68;99469.00;1266082;23;665;-72
2022/11/16 00:10:23;;;;;;;;;;;;;;;16.29;66.79;99474.22;1265805;23;639;-71
2022/11/16 00:11:13;;;;;;;;;;;;;;;16.28;66.62;99476.06;1265860;23;572;-72
2022/11/16 00:12:04;;;;;;;;;;;;;;;16.28;66.94;99476.06;1260500;23;662;-72
2022/11/16 00:12:54;;;;;;;;;;;;;;;16.28;67.18;99477.91;1262062;23;583;-71
2022/11/16 00:13:44;;;;;;;;;;;;;;;16.27;67.20;99477.06;1267571;23;606;-71
2022/11/16 00:14:35;;;;;;;;;;;;;;;16.28;66.67;99478.75;1265703;23;657;-72
2022/11/16 00:15:26;;;;;;;;;;;;;;;16.28;66.73;99469.84;1266030;23;618;-72
2022/11/16 00:16:17;;;;;;;;;;;;;;;16.26;66.86;99478.06;1264617;23;608;-72
2022/11/16 00:17:07;;;;;;;;;;;;;;;16.25;67.07;99473.72;1265662;23;650;-72
2022/11/16 00:17:57;;;;;;;;;;;;;;;16.25;67.37;99476.41;1266107;23;602;-72
2022/11/16 00:18:48;;;;;;;;;;;;;;;16.24;66.70;99474.72;1265690;23;653;-72
2022/11/16 00:19:38;;;;;;;;;;;;;;;16.25;66.92;99476.41;1261105;23;637;-72
2022/11/16 00:20:29;;;;;;;;;;;;;;;16.25;66.88;99479.09;1262937;23;598;-72
2022/11/16 00:21:19;;;;;;;;;;;;;;;16.25;67.04;99479.09;1267615;23;641;-72
2022/11/16 00:22:09;;;;;;;;;;;;;;;16.26;66.81;99474.53;1266004;23;626;-72
2022/11/16 00:23:00;;;;;;;;;;;;;;;16.27;66.80;99479.75;1265685;23;598;-72
2022/11/16 00:23:50;;;;;;;;;;;;;;;16.27;66.94;99478.91;1261008;23;1885;-72
2022/11/16 00:24:41;;;;;;;;;;;;;;;16.27;67.05;99474.38;1261939;23;645;-73
2022/11/16 00:25:31;;;;;;;;;;;;;;;16.26;67.24;99480.75;1267466;23;677;-72
2022/11/16 00:26:22;;;;;;;;;;;;;;;16.26;66.64;99472.69;1265097;23;584;-72
2022/11/16 00:27:13;;;;;;;;;;;;;;;16.26;66.99;99472.69;1264944;23;630;-72
2022/11/16 00:28:03;;;;;;;;;;;;;;;16.27;66.71;99477.06;1265957;23;670;-72
2022/11/16 00:28:54;;;;;;;;;;;;;;;16.24;67.19;99480.09;1265683;23;736;-72
2022/11/16 00:29:44;;;;;;;;;;;;;;;16.24;67.30;99477.41;1261047;23;618;-73
2022/11/16 00:30:34;;;;;;;;;;;;;;;16.23;67.05;99478.41;1261928;23;649;-73
2022/11/16 00:31:25;;;;;;;;;;;;;;;16.23;67.17;99473.03;1267506;23;606;-73
2022/11/16 00:32:15;;;;;;;;;;;;;;;16.23;67.51;99478.41;1265991;23;575;-73
2022/11/16 00:33:06;;;;;;;;;;;;;;;16.24;66.85;99474.72;1265677;23;623;-72
2022/11/16 00:33:56;;;;;;;;;;;;;;;16.25;67.06;99470.19;1265905;23;615;-72
2022/11/16 00:34:46;;;;;;;;;;;;;;;16.24;66.76;99471.19;1267486;23;532;-73
2022/11/16 00:35:37;;;;;;;;;;;;;;;16.20;67.54;99473.38;1265722;23;654;-72
2022/11/16 00:36:28;;;;;;;;;;;;;;;16.21;66.96;99468.81;1264922;23;654;-73
2022/11/16 00:37:18;;;;;;;;;;;;;;;16.23;67.17;99477.56;1266055;23;647;-73
2022/11/16 00:38:09;;;;;;;;;;;;;;;16.22;67.40;99474.03;1265634;23;622;-73
2022/11/16 00:38:59;;;;;;;;;;;;;;;16.22;67.39;99482.09;1265882;23;657;-72
2022/11/16 00:39:50;;;;;;;;;;;;;;;16.22;67.20;99471.34;1265557;23;662;-72
2022/11/16 00:40:40;;;;;;;;;;;;;;;16.23;67.15;99478.41;1265776;23;522;-72
2022/11/16 00:41:31;;;;;;;;;;;;;;;16.23;67.53;99472.19;1265960;23;610;-72
2022/11/16 00:42:21;;;;;;;;;;;;;;;16.22;67.21;99474.03;1261111;23;646;-72
2022/11/16 00:43:11;;;;;;;;;;;;;;;16.22;67.07;99470.50;1261973;23;653;-72
2022/11/16 00:44:02;;;;;;;;;;;;;;;16.20;67.15;99464.47;1267378;23;1881;-73
2022/11/16 00:44:52;;;;;;;;;;;;;;;16.21;67.72;99469.66;1265905;23;595;-73
2022/11/16 00:45:43;;;;;;;;;;;;;;;16.22;67.41;99467.81;1260965;23;646;-73
2022/11/16 00:46:33;;;;;;;;;;;;;;;16.21;67.05;99469.66;1261857;23;692;-72
2022/11/16 00:47:24;;;;;;;;;;;;;;;16.24;67.04;99468.50;1268319;23;625;-72
2022/11/16 00:48:14;;;;;;;;;;;;;;;16.24;67.13;99469.34;1265875;23;634;-72
2022/11/16 00:49:05;;;;;;;;;;;;;;;16.22;67.79;99468.66;1265767;23;634;-73
2022/11/16 00:49:55;;;;;;;;;;;;;;;16.22;67.69;99465.13;1265696;23;646;-73
2022/11/16 00:50:45;;;;;;;;;;;;;;;16.23;66.91;99464.13;1265893;23;622;-73
2022/11/16 00:51:36;;;;;;;;;;;;;;;16.24;67.32;99463.13;1265737;23;596;-73
2022/11/16 00:52:26;;;;;;;;;;;;;;;16.21;67.57;99464.28;1265829;23;620;-73
2022/11/16 00:53:17;;;;;;;;;;;;;;;16.21;67.69;99466.97;1265686;23;685;-73
2022/11/16 00:54:07;;;;;;;;;;;;;;;16.21;67.69;99463.44;1265832;23;657;-72
2022/11/16 00:54:58;;;;;;;;;;;;;;;16.21;67.69;99466.97;1265608;23;631;-73
2022/11/16 00:55:48;;;;;;;;;;;;;;;16.22;67.81;99463.28;1265697;23;622;-73
2022/11/16 00:56:38;;;;;;;;;;;;;;;16.20;67.44;99457.25;1265856;23;654;-73
2022/11/16 00:57:29;;;;;;;;;;;;;;;16.21;68.00;99463.44;1261029;23;626;-73
2022/11/16 00:58:19;;;;;;;;;;;;;;;16.18;67.63;99456.56;1261797;23;586;-73
2022/11/16 00:59:10;;;;;;;;;;;;;;;16.19;67.42;99452.03;1267274;23;646;-73
2022/11/16 01:00:00;;;;;;;;;;;;;;;16.20;68.07;99456.41;1260835;23;618;-73
2022/11/16 01:00:50;;;;;;;;;;;;;;;16.21;67.29;99458.06;1257318;23;768;-73
2022/11/16 01:01:41;;;;;;;;;;;;;;;16.22;67.70;99454.38;1260967;23;618;-73
2022/11/16 01:02:31;;;;;;;;;;;;;;;16.19;67.74;99450.19;1267140;23;1089;-73
2022/11/16 01:03:22;;;;;;;;;;;;;;;16.20;67.87;99453.72;1265593;23;568;-73
2022/11/16 01:04:12;;;;;;;;;;;;;;;16.19;67.94;99455.56;1267305;23;616;-73
2022/11/16 01:05:03;;;;;;;;;;;;;;;16.18;68.16;99459.25;1260945;23;633;-73
2022/11/16 01:05:53;;;;;;;;;;;;;;;16.19;67.92;99460.94;1257510;23;617;-73
2022/11/16 01:06:43;;;;;;;;;;;;;;;16.19;67.72;99454.72;1260963;23;653;-74
2022/11/16 01:07:34;;;;;;;;;;;;;;;16.18;67.39;99458.41;1267163;23;539;-73
2022/11/16 01:08:25;;;;;;;;;;;;;;;16.20;67.54;99459.94;1265274;23;559;-73
2022/11/16 01:09:15;;;;;;;;;;;;;;;16.19;67.67;99457.41;1265653;23;677;-73
2022/11/16 01:10:05;;;;;;;;;;;;;;;16.20;67.99;99468.00;1265359;23;594;-73
2022/11/16 01:12:07;;;;;;;;;;;;;;;16.19;68.08;99460.94;1265602;23;634;-73
2022/11/16 01:12:09;;;;;;;;;;;;;;;16.18;67.62;99456.56;1267575;23;666;-73
2022/11/16 01:12:59;;;;;;;;;;;;;;;16.17;68.37;99457.56;1265814;23;657;-72
2022/11/16 01:13:50;;;;;;;;;;;;;;;16.16;68.17;99450.50;1265588;23;645;-72
2022/11/16 01:14:40;;;;;;;;;;;;;;;16.16;68.01;99452.38;1265838;23;633;-73
2022/11/16 01:15:31;;;;;;;;;;;;;;;16.17;67.62;99457.56;1267500;23;606;-73
2022/11/16 01:16:21;;;;;;;;;;;;;;;16.18;67.65;99455.72;1265787;23;661;-73
2022/11/16 01:17:12;;;;;;;;;;;;;;;16.14;68.72;99452.53;1265520;23;597;-73
2022/11/16 01:18:02;;;;;;;;;;;;;;;16.13;68.32;99450.84;1265598;23;590;-73
2022/11/16 01:18:53;;;;;;;;;;;;;;;16.14;68.28;99446.31;1265879;23;561;-73
2022/11/16 01:19:43;;;;;;;;;;;;;;;16.15;68.21;99454.22;1265658;23;630;-73
2022/11/16 01:20:33;;;;;;;;;;;;;;;16.14;68.19;99446.31;1265942;23;609;-72
2022/11/16 01:21:24;;;;;;;;;;;;;;;16.15;68.36;99454.22;1265556;23;626;-72
2022/11/16 01:22:14;;;;;;;;;;;;;;;16.15;68.14;99451.53;1265865;23;633;-72
2022/11/16 01:23:05;;;;;;;;;;;;;;;16.15;68.45;99448.00;1266342;23;630;-72
2022/11/16 01:23:56;;;;;;;;;;;;;;;16.14;68.11;99449.84;1265712;23;1930;-73
2022/11/16 01:24:46;;;;;;;;;;;;;;;16.14;68.04;99441.78;1266601;23;711;-73
2022/11/16 01:25:36;;;;;;;;;;;;;;;16.14;68.15;99449.84;1261053;23;666;-73
2022/11/16 01:26:27;;;;;;;;;;;;;;;16.14;68.19;99446.31;1261877;23;582;-74
2022/11/16 01:27:17;;;;;;;;;;;;;;;16.15;68.17;99450.69;1262713;23;625;-74
2022/11/16 01:28:08;;;;;;;;;;;;;;;16.14;68.27;99447.16;1261055;23;657;-73
2022/11/16 01:28:58;;;;;;;;;;;;;;;16.15;68.29;99450.69;1267206;23;598;-73
2022/11/16 01:29:49;;;;;;;;;;;;;;;16.13;68.26;99445.47;1265912;23;637;-73
2022/11/16 01:30:39;;;;;;;;;;;;;;;16.12;68.21;99443.78;1265591;23;591;-73
2022/11/16 01:31:29;;;;;;;;;;;;;;;16.13;68.33;99442.78;1267258;23;637;-73
2022/11/16 01:32:20;;;;;;;;;;;;;;;16.13;68.42;99447.31;1265582;23;579;-72
2022/11/16 01:33:10;;;;;;;;;;;;;;;16.12;68.29;99441.09;1265730;23;610;-73
2022/11/16 01:34:01;;;;;;;;;;;;;;;16.13;68.36;99437.41;1265706;23;547;-73
2022/11/16 01:34:51;;;;;;;;;;;;;;;16.13;68.43;99445.47;1265558;23;670;-73
2022/11/16 01:35:41;;;;;;;;;;;;;;;16.15;68.29;99434.56;1260809;23;626;-73
2022/11/16 01:36:34;;;;;;;;;;;;;;;16.14;68.39;99436.41;1261840;23;614;-73
2022/11/16 01:37:24;;;;;;;;;;;;;;;16.15;68.32;99435.41;1267384;23;618;-73
2022/11/16 01:38:15;;;;;;;;;;;;;;;16.15;68.39;99438.09;1259107;23;677;-73
2022/11/16 01:39:05;;;;;;;;;;;;;;;16.15;68.40;99439.94;1261170;23;569;-73
2022/11/16 01:39:55;;;;;;;;;;;;;;;16.15;68.20;99435.41;1267378;23;660;-73
2022/11/16 01:40:46;;;;;;;;;;;;;;;16.17;68.20;99436.06;1265591;23;672;-73
2022/11/16 01:41:36;;;;;;;;;;;;;;;16.14;68.41;99439.09;1267286;23;646;-73
2022/11/16 01:42:27;;;;;;;;;;;;;;;16.14;68.36;99436.41;1265641;23;623;-73
2022/11/16 01:43:17;;;;;;;;;;;;;;;16.13;68.16;99434.72;1265666;23;614;-73
2022/11/16 01:44:08;;;;;;;;;;;;;;;16.13;68.52;99439.25;1265438;23;1925;-73
2022/11/16 01:44:58;;;;;;;;;;;;;;;16.13;68.19;99434.72;1265622;23;678;-74
2022/11/16 01:45:49;;;;;;;;;;;;;;;16.13;68.55;99434.72;1265517;23;643;-74
2022/11/16 01:46:39;;;;;;;;;;;;;;;16.14;68.41;99432.88;1265719;23;634;-73
2022/11/16 01:47:30;;;;;;;;;;;;;;;16.14;68.59;99438.25;1265918;23;567;-74
2022/11/16 01:48:20;;;;;;;;;;;;;;;16.12;68.60;99434.91;1267292;23;645;-74
2022/11/16 01:49:10;;;;;;;;;;;;;;;16.14;68.15;99440.94;1265794;23;630;-73
2022/11/16 01:50:01;;;;;;;;;;;;;;;16.12;68.80;99424.97;1265382;23;650;-71
2022/11/16 01:50:52;;;;;;;;;;;;;;;16.10;68.49;99435.09;1265195;23;630;-72
2022/11/16 01:51:42;;;;;;;;;;;;;;;16.11;68.59;99434.09;1265528;23;587;-73
2022/11/16 01:52:32;;;;;;;;;;;;;;;16.11;68.61;99425.19;1265716;23;611;-73
2022/11/16 01:53:23;;;;;;;;;;;;;;;16.13;68.43;99437.41;1264869;23;713;-72
2022/11/16 01:54:13;;;;;;;;;;;;;;;16.13;68.67;99429.34;1265728;23;653;-73
2022/11/16 01:55:04;;;;;;;;;;;;;;;16.12;68.44;99430.34;1265551;23;591;-72
2022/11/16 01:55:54;;;;;;;;;;;;;;;16.11;68.79;99425.19;1260855;23;615;-73
2022/11/16 01:56:45;;;;;;;;;;;;;;;16.09;68.74;99428.03;1261633;23;626;-73
2022/11/16 01:57:35;;;;;;;;;;;;;;;16.11;68.67;99431.41;1267454;23;645;-73
2022/11/16 01:58:26;;;;;;;;;;;;;;;16.10;68.64;99435.09;1265763;23;674;-73
2022/11/16 01:59:16;;;;;;;;;;;;;;;16.12;68.35;99430.34;1267334;23;645;-73
2022/11/16 02:00:07;;;;;;;;;;;;;;;16.13;68.40;99425.81;1265236;23;646;-73
2022/11/16 02:00:57;;;;;;;;;;;;;;;16.13;68.52;99428.50;1265643;23;621;-73
2022/11/16 02:01:47;;;;;;;;;;;;;;;16.11;68.60;99426.03;1265887;23;518;-73
2022/11/16 02:02:38;;;;;;;;;;;;;;;16.11;68.66;99427.88;1265281;23;1221;-73
2022/11/16 02:03:28;;;;;;;;;;;;;;;16.09;68.84;99422.66;1260910;23;776;-73
2022/11/16 02:04:19;;;;;;;;;;;;;;;16.10;68.95;99435.09;1261795;23;621;-73
2022/11/16 02:05:09;;;;;;;;;;;;;;;16.11;68.64;99426.03;1266321;23;645;-73
2022/11/16 02:06:00;;;;;;;;;;;;;;;16.10;68.97;99423.50;1265376;23;626;-73
2022/11/16 02:06:50;;;;;;;;;;;;;;;16.10;69.16;99429.72;1265549;23;614;-73
2022/11/16 02:09:59;;;;;;;;;;;;;;;16.09;68.40;99419.97;1268125;23;529;-73
2022/11/16 02:10:50;;;;;;;;;;;;;;;16.10;68.42;99418.97;1265651;23;641;-73
2022/11/16 02:11:40;;;;;;;;;;;;;;;16.09;68.88;99422.66;1265290;23;615;-74
2022/11/16 02:12:30;;;;;;;;;;;;;;;16.09;68.69;99427.19;1267313;23;652;-74
2022/11/16 02:13:21;;;;;;;;;;;;;;;16.08;68.93;99426.34;1265409;23;717;-73
2022/11/16 02:14:11;;;;;;;;;;;;;;;16.09;68.38;99424.50;1265436;23;634;-73
2022/11/16 02:15:02;;;;;;;;;;;;;;;16.01;68.77;99428.03;1265720;23;661;-73
2022/11/16 02:15:52;;;;;;;;;;;;;;;16.03;68.90;99423.31;1265478;23;661;-73
2022/11/16 02:16:43;;;;;;;;;;;;;;;16.01;69.13;99417.28;1260911;23;945;-73
2022/11/16 02:17:33;;;;;;;;;;;;;;;16.01;68.82;99421.81;1259890;23;665;-73
2022/11/16 02:18:23;;;;;;;;;;;;;;;16.03;68.68;99422.47;1267390;23;626;-73
2022/11/16 02:19:14;;;;;;;;;;;;;;;16.05;68.84;99424.00;1265315;23;744;-74
2022/11/16 02:20:04;;;;;;;;;;;;;;;16.04;68.97;99416.94;1266524;23;618;-73
2022/11/16 02:20:55;;;;;;;;;;;;;;;16.06;68.93;99417.63;1260867;23;661;-73
2022/11/16 02:21:45;;;;;;;;;;;;;;;16.09;68.89;99421.81;1261717;23;641;-73
2022/11/16 02:22:36;;;;;;;;;;;;;;;16.07;68.42;99424.66;1262082;23;773;-73
2022/11/16 02:23:26;;;;;;;;;;;;;;;16.09;68.18;99419.13;1260925;23;528;-74
2022/11/16 02:24:16;;;;;;;;;;;;;;;16.07;68.29;99418.47;1267126;23;665;-73
2022/11/16 02:25:07;;;;;;;;;;;;;;;16.06;68.87;99422.16;1265345;23;647;-73
2022/11/16 02:25:58;;;;;;;;;;;;;;;16.05;68.64;99415.94;1265007;23;619;-73
2022/11/16 02:26:48;;;;;;;;;;;;;;;16.06;68.28;99412.25;1264692;23;697;-73
2022/11/16 02:27:39;;;;;;;;;;;;;;;16.05;68.93;99421.31;1265345;23;665;-75
2022/11/16 02:28:29;;;;;;;;;;;;;;;16.05;68.74;99418.63;1265641;23;658;-74
2022/11/16 02:29:20;;;;;;;;;;;;;;;16.06;68.86;99419.47;1265908;23;587;-74
2022/11/16 02:30:10;;;;;;;;;;;;;;;16.07;68.90;99413.09;1260816;23;653;-74
2022/11/16 02:31:00;;;;;;;;;;;;;;;16.05;68.95;99413.25;1261587;23;662;-74
2022/11/16 02:31:51;;;;;;;;;;;;;;;16.06;68.87;99420.31;1267219;23;547;-73
2022/11/16 02:32:41;;;;;;;;;;;;;;;16.06;68.85;99417.63;1265615;23;670;-73
2022/11/16 02:33:32;;;;;;;;;;;;;;;16.06;68.87;99417.63;1265828;23;623;-73
2022/11/16 02:34:22;;;;;;;;;;;;;;;16.07;69.05;99419.28;1265589;23;620;-73
2022/11/16 02:35:12;;;;;;;;;;;;;;;16.05;69.01;99420.47;1265618;23;674;-74
2022/11/16 02:36:03;;;;;;;;;;;;;;;16.04;68.97;99414.25;1260760;23;642;-73
2022/11/16 02:36:53;;;;;;;;;;;;;;;16.05;68.73;99424.00;1261015;23;743;-74
2022/11/16 02:37:44;;;;;;;;;;;;;;;16.07;68.99;99415.78;1260616;23;634;-74
2022/11/16 02:38:34;;;;;;;;;;;;;;;16.06;69.06;99417.63;1260831;23;641;-74
2022/11/16 02:39:26;;;;;;;;;;;;;;;16.04;68.87;99418.78;1267108;23;626;-74
2022/11/16 02:40:16;;;;;;;;;;;;;;;16.05;69.01;99420.47;1264618;23;622;-74
2022/11/16 02:41:06;;;;;;;;;;;;;;;16.03;68.97;99412.56;1265555;23;688;-73
2022/11/16 02:41:57;;;;;;;;;;;;;;;16.04;68.98;99418.78;1266418;23;638;-73
2022/11/16 02:42:47;;;;;;;;;;;;;;;16.04;68.95;99419.63;1265504;23;622;-74
2022/11/16 02:43:38;;;;;;;;;;;;;;;16.00;69.07;99415.59;1265801;23;935;-74
2022/11/16 02:44:28;;;;;;;;;;;;;;;16.00;69.13;99420.97;1265429;23;634;-74
2022/11/16 02:45:18;;;;;;;;;;;;;;;16.01;69.34;99414.59;1265595;23;657;-74
2022/11/16 02:46:09;;;;;;;;;;;;;;;16.02;69.05;99418.97;1265317;23;615;-75
2022/11/16 02:46:59;;;;;;;;;;;;;;;16.03;69.05;99420.63;1265586;23;618;-73
2022/11/16 02:47:50;;;;;;;;;;;;;;;16.03;68.86;99417.09;1265422;23;612;-73
2022/11/16 02:48:40;;;;;;;;;;;;;;;16.04;69.06;99416.94;1265609;23;626;-73
2022/11/16 02:49:31;;;;;;;;;;;;;;;16.05;69.05;99421.31;1260785;23;776;-73
2022/11/16 02:50:22;;;;;;;;;;;;;;;16.04;69.26;99424.16;1257494;23;638;-71
2022/11/16 02:51:12;;;;;;;;;;;;;;;16.03;69.19;99415.25;1259893;23;580;-73
2022/11/16 02:52:03;;;;;;;;;;;;;;;16.02;69.13;99420.81;1267150;23;618;-73
2022/11/16 02:52:54;;;;;;;;;;;;;;;16.02;69.06;99426.19;1265488;23;733;-73
2022/11/16 02:53:45;;;;;;;;;;;;;;;16.03;69.09;99423.31;1265583;23;686;-73
2022/11/16 02:54:35;;;;;;;;;;;;;;;16.03;68.96;99417.09;1265472;23;606;-73
2022/11/16 02:55:25;;;;;;;;;;;;;;;16.04;68.93;99416.94;1265584;23;654;-73
2022/11/16 02:56:16;;;;;;;;;;;;;;;16.03;68.84;99414.41;1265388;23;595;-73
2022/11/16 02:57:06;;;;;;;;;;;;;;;16.03;68.80;99417.94;1265421;23;605;-73
2022/11/16 02:57:57;;;;;;;;;;;;;;;16.01;68.92;99417.28;1265702;23;649;-74
2022/11/16 02:58:47;;;;;;;;;;;;;;;15.97;69.42;99422.16;1260655;23;676;-73
2022/11/16 02:59:38;;;;;;;;;;;;;;;15.98;69.18;99420.28;1257184;23;720;-74
2022/11/16 03:00:28;;;;;;;;;;;;;;;15.98;69.29;99423.81;1260779;23;621;-74
2022/11/16 03:01:18;;;;;;;;;;;;;;;15.98;69.03;99418.44;1267059;23;724;-74
2022/11/16 03:02:09;;;;;;;;;;;;;;;15.98;69.14;99425.66;1265285;23;708;-74
2022/11/16 03:02:59;;;;;;;;;;;;;;;16.00;68.82;99423.66;1267106;23;594;-74
2022/11/16 03:03:50;;;;;;;;;;;;;;;16.01;69.15;99416.44;1267031;23;1948;-74
2022/11/16 03:04:40;;;;;;;;;;;;;;;16.01;69.27;99419.13;1265415;23;630;-74
2022/11/16 03:05:31;;;;;;;;;;;;;;;15.98;69.14;99425.66;1265622;23;591;-74
2022/11/16 03:06:21;;;;;;;;;;;;;;;15.98;69.24;99426.50;1265266;23;673;-74
2022/11/16 03:07:11;;;;;;;;;;;;;;;15.98;69.45;99421.13;1267075;23;606;-72
2022/11/16 03:08:02;;;;;;;;;;;;;;;15.92;69.67;99418.31;1260698;23;705;-72
2022/11/16 03:08:53;;;;;;;;;;;;;;;15.91;69.05;99424.69;1261659;23;743;-73
2022/11/16 03:09:43;;;;;;;;;;;;;;;15.91;69.13;99425.53;1266237;23;680;-73
2022/11/16 03:11:58;;;;;;;;;;;;;;;15.81;69.49;99424.00;1268082;23;668;-74
2022/11/16 03:12:49;;;;;;;;;;;;;;;15.86;69.76;99427.03;1265642;23;597;-76
2022/11/16 03:13:39;;;;;;;;;;;;;;;15.87;69.76;99420.66;1265600;23;606;-74
2022/11/16 03:14:29;;;;;;;;;;;;;;;15.90;69.47;99423.84;1265577;23;641;-74
2022/11/16 03:15:20;;;;;;;;;;;;;;;15.90;69.40;99425.69;1265278;23;598;-74
2022/11/16 03:16:10;;;;;;;;;;;;;;;15.85;69.48;99420.81;1265378;23;618;-72
2022/11/16 03:17:01;;;;;;;;;;;;;;;15.89;69.79;99424.84;1265663;23;623;-74
2022/11/16 03:17:51;;;;;;;;;;;;;;;15.92;69.36;99426.38;1266969;23;640;-72
2022/11/16 03:18:42;;;;;;;;;;;;;;;15.93;69.47;99422.66;1265656;23;646;-73
2022/11/16 03:19:32;;;;;;;;;;;;;;;15.93;69.29;99423.50;1265205;23;622;-72
2022/11/16 03:20:22;;;;;;;;;;;;;;;15.96;69.03;99416.94;1264796;23;645;-72
2022/11/16 03:21:13;;;;;;;;;;;;;;;15.97;69.32;99419.44;1265499;23;630;-72
2022/11/16 03:22:03;;;;;;;;;;;;;;;15.98;69.22;99423.81;1260720;23;620;-72
2022/11/16 03:22:54;;;;;;;;;;;;;;;15.96;69.36;99423.16;1262090;23;633;-73
2022/11/16 03:23:44;;;;;;;;;;;;;;;15.97;69.44;99421.31;1266921;23;661;-73
2022/11/16 03:24:34;;;;;;;;;;;;;;;15.94;69.47;99422.47;1265652;23;634;-73
2022/11/16 03:25:25;;;;;;;;;;;;;;;15.94;69.55;99427.03;1265349;23;634;-73
2022/11/16 03:26:15;;;;;;;;;;;;;;;15.94;69.37;99422.47;1260749;23;646;-73
2022/11/16 03:27:08;;;;;;;;;;;;;;;15.93;69.35;99420.00;1259781;23;639;-73
2022/11/16 03:27:59;;;;;;;;;;;;;;;15.92;70.04;99410.25;1267163;23;629;-73
2022/11/16 03:28:49;;;;;;;;;;;;;;;15.93;69.56;99417.31;1267149;23;645;-73
2022/11/16 03:29:39;;;;;;;;;;;;;;;15.94;69.68;99422.47;1265533;23;689;-73
2022/11/16 03:30:30;;;;;;;;;;;;;;;15.97;69.57;99421.31;1265294;23;768;-73
2022/11/16 03:31:20;;;;;;;;;;;;;;;15.95;69.60;99424.16;1267081;23;617;-73
2022/11/16 03:32:11;;;;;;;;;;;;;;;15.95;69.70;99428.69;1265520;23;620;-74
2022/11/16 03:33:02;;;;;;;;;;;;;;;15.94;69.71;99424.34;1265461;23;631;-73
2022/11/16 03:33:52;;;;;;;;;;;;;;;15.95;69.49;99431.38;1265370;23;662;-73
2022/11/16 03:34:42;;;;;;;;;;;;;;;15.94;69.55;99429.72;1265520;23;685;-73
2022/11/16 03:35:33;;;;;;;;;;;;;;;15.96;69.69;99425.00;1265198;23;665;-73
2022/11/16 03:36:23;;;;;;;;;;;;;;;15.95;69.91;99417.94;1265501;23;650;-73
2022/11/16 03:37:14;;;;;;;;;;;;;;;15.95;69.91;99426.84;1265651;23;595;-73
2022/11/16 03:38:04;;;;;;;;;;;;;;;15.93;69.83;99426.19;1265387;23;638;-73
2022/11/16 03:38:54;;;;;;;;;;;;;;;15.96;69.88;99416.94;1265600;23;673;-74
2022/11/16 03:39:45;;;;;;;;;;;;;;;15.95;69.88;99416.09;1267100;23;654;-73
2022/11/16 03:40:35;;;;;;;;;;;;;;;15.97;69.82;99424.81;1265522;23;630;-74
2022/11/16 03:41:26;;;;;;;;;;;;;;;15.98;69.60;99420.28;1265638;23;595;-74
2022/11/16 03:42:16;;;;;;;;;;;;;;;15.96;69.85;99427.69;1265435;23;623;-74
2022/11/16 03:43:07;;;;;;;;;;;;;;;15.91;69.88;99430.06;1265552;23;610;-74
2022/11/16 03:43:57;;;;;;;;;;;;;;;15.92;69.92;99429.06;1265353;23;1942;-74
2022/11/16 03:44:47;;;;;;;;;;;;;;;15.89;70.15;99426.69;1266959;23;673;-73
2022/11/16 03:45:38;;;;;;;;;;;;;;;15.91;69.89;99430.06;1265706;23;614;-74
2022/11/16 03:46:28;;;;;;;;;;;;;;;15.92;69.79;99431.75;1267159;23;536;-74
2022/11/16 03:47:19;;;;;;;;;;;;;;;15.86;69.82;99432.41;1267086;23;630;-72
2022/11/16 03:48:09;;;;;;;;;;;;;;;15.85;70.28;99430.72;1267046;23;629;-72
2022/11/16 03:48:59;;;;;;;;;;;;;;;15.84;70.14;99431.72;1265381;23;602;-73
2022/11/16 03:49:50;;;;;;;;;;;;;;;15.82;70.11;99433.72;1267117;23;645;-73
2022/11/16 03:50:40;;;;;;;;;;;;;;;15.84;70.37;99429.88;1265516;23;594;-72
2022/11/16 03:51:31;;;;;;;;;;;;;;;15.82;70.34;99431.88;1265720;23;649;-72
2022/11/16 03:52:21;;;;;;;;;;;;;;;15.84;70.64;99427.19;1267120;23;618;-72
2022/11/16 03:53:12;;;;;;;;;;;;;;;15.86;70.35;99421.66;1260595;23;626;-72
2022/11/16 03:54:02;;;;;;;;;;;;;;;15.84;70.44;99429.03;1261570;23;634;-72
2022/11/16 03:54:53;;;;;;;;;;;;;;;15.86;70.20;99432.41;1267065;23;613;-73
2022/11/16 03:55:43;;;;;;;;;;;;;;;15.88;70.12;99433.06;1265294;23;610;-73
2022/11/16 03:56:34;;;;;;;;;;;;;;;15.88;70.24;99446.50;1267207;23;653;-73
2022/11/16 03:57:24;;;;;;;;;;;;;;;15.83;70.47;99440.78;1265298;23;666;-72
2022/11/16 03:58:17;;;;;;;;;;;;;;;15.85;70.38;99446.84;1267099;23;649;-72
2022/11/16 03:59:07;;;;;;;;;;;;;;;15.85;70.35;99446.84;1264633;23;653;-73
2022/11/16 03:59:58;;;;;;;;;;;;;;;15.88;70.55;99441.13;1265674;23;621;-73
2022/11/16 04:00:48;;;;;;;;;;;;;;;15.88;70.09;99436.59;1265206;23;739;-73
2022/11/16 04:01:39;;;;;;;;;;;;;;;15.89;70.73;99435.59;1265517;23;630;-73
2022/11/16 04:02:29;;;;;;;;;;;;;;;15.91;70.21;99438.97;1260431;23;1247;-73
2022/11/16 04:03:19;;;;;;;;;;;;;;;15.92;69.99;99437.13;1261474;23;555;-73
2022/11/16 04:24:10;;;;;;;;;;;;;;;15.92;70.14;99437.94;1266480;23;1901;-73
2022/11/16 04:24:13;;;;;;;;;;;;;;;15.88;70.50;99441.97;1267893;23;1877;-73
2022/11/16 04:25:03;;;;;;;;;;;;;;;15.89;70.41;99449.03;1265232;23;700;-73
2022/11/16 04:25:54;;;;;;;;;;;;;;;15.87;70.59;99445.66;1265454;23;617;-73
2022/11/16 04:28:12;;;;;;;;;;;;;;;15.90;70.64;99439.13;1267948;23;622;-73
2022/11/16 04:29:02;;;;;;;;;;;;;;;15.90;70.57;99444.50;1265422;23;611;-74
2022/11/16 04:29:53;;;;;;;;;;;;;;;15.89;70.63;99448.19;1265513;23;669;-74
2022/11/16 04:37:47;;;;;;;;;;;;;;;15.86;70.88;99441.31;1268239;23;668;-74
2022/11/16 04:37:48;;;;;;;;;;;;;;;15.83;70.66;99446.16;1268314;23;652;-74
2022/11/16 04:38:39;;;;;;;;;;;;;;;15.84;70.91;99445.16;1267498;23;696;-74
2022/11/16 04:39:29;;;;;;;;;;;;;;;15.86;70.96;99453.88;1265632;23;654;-74
2022/11/16 04:40:20;;;;;;;;;;;;;;;15.85;70.94;99446.84;1265910;23;716;-74
2022/11/16 04:42:13;;;;;;;;;;;;;;;15.84;71.20;99447.84;1265481;23;681;-74
2022/11/16 04:42:21;;;;;;;;;;;;;;;15.84;70.55;99459.44;1267286;23;1113;-74
2022/11/16 04:43:12;;;;;;;;;;;;;;;15.86;70.70;99452.03;1265027;23;647;-74
2022/11/16 04:44:02;;;;;;;;;;;;;;;15.89;70.61;99456.25;1265448;23;1885;-74
2022/11/16 04:47:11;;;;;;;;;;;;;;;15.85;70.95;99453.06;1268324;23;621;-74
2022/11/16 04:48:01;;;;;;;;;;;;;;;15.85;70.67;99453.06;1266545;23;549;-74
2022/11/16 04:48:52;;;;;;;;;;;;;;;15.85;70.61;99457.59;1265843;23;646;-74
2022/11/16 04:49:42;;;;;;;;;;;;;;;15.85;70.97;99462.97;1261026;23;614;-74
2022/11/16 04:50:32;;;;;;;;;;;;;;;15.83;70.96;99462.28;1257443;23;633;-74
2022/11/16 04:51:23;;;;;;;;;;;;;;;15.83;70.80;99462.28;1261059;23;657;-74
2022/11/16 04:52:13;;;;;;;;;;;;;;;15.82;70.68;99458.75;1267144;23;580;-74
2022/11/16 04:53:04;;;;;;;;;;;;;;;15.84;70.39;99461.28;1265950;23;682;-74
2022/11/16 04:53:54;;;;;;;;;;;;;;;15.84;70.67;99463.97;1265661;23;615;-74
2022/11/16 04:54:45;;;;;;;;;;;;;;;15.86;70.46;99467.31;1265762;23;618;-73
2022/11/16 04:55:35;;;;;;;;;;;;;;;15.88;70.29;99473.38;1260992;23;629;-73
2022/11/16 04:56:25;;;;;;;;;;;;;;;15.85;70.44;99466.47;1261903;23;649;-74
2022/11/16 04:57:16;;;;;;;;;;;;;;;15.86;70.40;99465.47;1267487;23;645;-74
2022/11/16 04:58:06;;;;;;;;;;;;;;;15.88;70.82;99468.00;1265635;23;606;-74
2022/11/16 04:58:57;;;;;;;;;;;;;;;15.90;70.48;99466.81;1265791;23;657;-74
2022/11/16 04:59:47;;;;;;;;;;;;;;;15.91;70.61;99463.13;1265632;23;614;-74
2022/11/16 05:00:38;;;;;;;;;;;;;;;15.92;70.30;99459.44;1265723;23;839;-73
2022/11/16 05:02:37;;;;;;;;;;;;;;;15.97;70.22;99456.22;1268226;23;1229;-74
2022/11/16 05:03:27;;;;;;;;;;;;;;;15.98;70.13;99457.91;1265730;23;633;-74
2022/11/16 05:04:18;;;;;;;;;;;;;;;15.99;70.10;99454.22;1265868;23;1905;-74